createdAt,value
2023-11-13T00:00:30.275Z,14.40
2023-11-13T00:03:06.609Z,12.70
2023-11-13T00:05:39.906Z,12.60
2023-11-13T00:08:12.652Z,13.10
2023-11-13T00:10:47.136Z,12.40
2023-11-13T00:13:20.279Z,13.00
2023-11-13T00:15:53.026Z,9.90
2023-11-13T00:18:27.522Z,11.70
2023-11-13T00:21:00.505Z,11.80
2023-11-13T00:23:33.372Z,11.80
2023-11-13T00:26:06.317Z,12.80
2023-11-13T00:28:39.283Z,11.10
2023-11-13T00:31:13.425Z,8.00
2023-11-13T00:33:50.250Z,11.10
2023-11-13T00:36:25.260Z,11.50
2023-11-13T00:39:02.398Z,11.50
2023-11-13T00:41:35.291Z,11.20
2023-11-13T00:44:10.813Z,11.70
2023-11-13T00:46:43.555Z,11.40
2023-11-13T00:49:16.698Z,12.40
2023-11-13T00:51:49.515Z,12.10
2023-11-13T00:54:24.938Z,10.70
2023-11-13T00:56:58.038Z,12.00
2023-11-13T00:59:31.005Z,12.40
2023-11-13T01:02:04.601Z,12.30
2023-11-13T01:07:08.491Z,13.60
2023-11-13T01:09:44.490Z,13.30
2023-11-13T01:12:18.735Z,13.50
2023-11-13T01:14:51.992Z,13.50
2023-11-13T01:17:25.037Z,13.90
2023-11-13T01:20:01.331Z,14.40
2023-11-13T01:22:33.843Z,14.00
2023-11-13T01:25:07.181Z,14.10
2023-11-13T01:27:39.901Z,14.80
2023-11-13T01:30:15.223Z,15.40
2023-11-13T01:32:47.738Z,15.20
2023-11-13T01:35:20.785Z,14.90
2023-11-13T01:37:53.693Z,15.10
2023-11-13T01:40:27.165Z,15.10
2023-11-13T01:43:02.059Z,14.60
2023-11-13T01:45:35.610Z,15.60
2023-11-13T01:50:40.733Z,13.70
2023-11-13T01:53:14.470Z,14.80
2023-11-13T01:55:49.249Z,14.60
2023-11-13T01:58:21.987Z,14.70
2023-11-13T02:00:55.409Z,10.60
2023-11-13T02:03:30.492Z,13.50
2023-11-13T02:06:03.593Z,12.50
2023-11-13T02:08:36.137Z,13.30
2023-11-13T02:11:10.836Z,13.50
2023-11-13T02:13:50.194Z,12.80
2023-11-13T02:16:26.724Z,13.00
2023-11-13T02:19:05.139Z,13.10
2023-11-13T02:21:39.969Z,13.50
2023-11-13T02:24:14.471Z,14.30
2023-11-13T02:26:47.463Z,13.00
2023-11-13T02:29:20.178Z,14.20
2023-11-13T02:31:57.293Z,13.50
2023-11-13T02:34:29.891Z,15.30
2023-11-13T02:37:04.647Z,14.90
2023-11-13T02:39:39.115Z,13.70
2023-11-13T02:42:13.078Z,13.70
2023-11-13T02:44:46.174Z,11.10
2023-11-13T02:47:19.894Z,15.40
2023-11-13T02:52:23.973Z,13.00
2023-11-13T02:54:57.201Z,11.60
2023-11-13T02:57:30.198Z,14.20
2023-11-13T03:00:08.032Z,15.30
2023-11-13T03:02:41.088Z,14.60
2023-11-13T03:05:13.638Z,13.80
2023-11-13T03:07:47.590Z,13.30
2023-11-13T03:10:20.618Z,13.60
2023-11-13T03:13:00.384Z,13.60
2023-11-13T03:15:32.879Z,14.50
2023-11-13T03:18:08.158Z,13.90
2023-11-13T03:20:40.879Z,13.00
2023-11-13T03:23:13.920Z,13.50
2023-11-13T03:25:46.652Z,13.20
2023-11-13T03:28:19.683Z,12.60
2023-11-13T03:30:52.590Z,12.50
2023-11-13T03:33:25.603Z,12.20
2023-11-13T03:36:04.411Z,9.30
2023-11-13T03:38:37.498Z,12.60
2023-11-13T03:41:10.292Z,12.40
2023-11-13T03:43:43.060Z,13.60
2023-11-13T03:46:15.808Z,11.10
2023-11-13T03:48:48.562Z,12.00
2023-11-13T03:51:21.457Z,11.20
2023-11-13T03:53:58.884Z,11.00
2023-11-13T03:56:34.589Z,10.50
2023-11-13T03:59:07.439Z,9.80
2023-11-13T04:01:40.799Z,11.40
2023-11-13T04:06:45.479Z,11.90
2023-11-13T04:09:18.831Z,12.00
2023-11-13T04:11:53.181Z,10.50
2023-11-13T04:14:26.211Z,11.00
2023-11-13T04:16:59.187Z,11.50
2023-11-13T04:19:35.509Z,11.40
2023-11-13T04:22:09.657Z,11.10
2023-11-13T04:24:42.429Z,11.60
2023-11-13T04:27:15.118Z,11.80
2023-11-13T04:29:48.368Z,10.30
2023-11-13T04:32:21.313Z,11.20
2023-11-13T04:34:55.019Z,11.30
2023-11-13T04:37:27.700Z,10.90
2023-11-13T04:40:00.462Z,10.70
2023-11-13T04:42:33.484Z,10.70
2023-11-13T04:45:06.992Z,10.40
2023-11-13T04:47:39.596Z,10.00
2023-11-13T04:50:13.901Z,10.20
2023-11-13T04:52:49.726Z,11.80
2023-11-13T04:55:22.936Z,11.10
2023-11-13T04:57:58.346Z,9.70
2023-11-13T05:00:31.549Z,10.50
2023-11-13T05:03:04.646Z,10.80
2023-11-13T05:05:38.384Z,8.10
2023-11-13T05:10:42.038Z,11.50
2023-11-13T05:13:17.915Z,11.00
2023-11-13T05:15:50.711Z,10.80
2023-11-13T05:18:23.404Z,11.50
2023-11-13T05:20:59.677Z,8.00
2023-11-13T05:23:32.068Z,10.90
2023-11-13T05:26:05.913Z,10.60
2023-11-13T05:28:38.612Z,9.70
2023-11-13T05:31:11.838Z,10.00
2023-11-13T05:33:44.656Z,9.00
2023-11-13T05:36:18.113Z,8.00
2023-11-13T05:38:53.146Z,8.00
2023-11-13T05:41:27.018Z,7.90
2023-11-13T05:46:33.777Z,7.90
2023-11-13T05:49:13.862Z,7.90
2023-11-13T05:51:48.130Z,7.40
2023-11-13T05:54:21.454Z,7.80
2023-11-13T05:56:54.561Z,7.80
2023-11-13T05:59:27.461Z,7.30
2023-11-13T06:02:03.336Z,7.40
2023-11-13T06:04:37.384Z,8.50
2023-11-13T06:07:10.498Z,7.30
2023-11-13T06:09:44.092Z,7.90
2023-11-13T06:12:17.390Z,7.20
2023-11-13T06:14:53.890Z,7.60
2023-11-13T06:17:27.337Z,7.30
2023-11-13T06:20:00.040Z,7.20
2023-11-13T06:22:33.049Z,7.30
2023-11-13T06:25:06.022Z,6.70
2023-11-13T06:27:38.798Z,7.20
2023-11-13T06:30:14.362Z,7.50
2023-11-13T06:32:49.975Z,7.70
2023-11-13T06:35:22.608Z,7.70
2023-11-13T06:37:55.772Z,7.80
2023-11-13T06:40:28.724Z,7.80
2023-11-13T06:43:01.812Z,7.90
2023-11-13T06:45:34.230Z,7.90
2023-11-13T06:48:09.959Z,7.70
2023-11-13T06:50:42.630Z,7.10
2023-11-13T06:53:15.599Z,7.80
2023-11-13T06:55:51.243Z,5.90
2023-11-13T06:58:24.975Z,7.50
2023-11-13T07:00:58.167Z,6.90
2023-11-13T07:03:32.333Z,7.10
2023-11-13T07:06:04.950Z,7.00
2023-11-13T07:08:39.218Z,7.80
2023-11-13T07:11:12.590Z,6.80
2023-11-13T07:13:45.924Z,6.90
2023-11-13T07:16:19.771Z,6.30
2023-11-13T07:18:55.449Z,6.50
2023-11-13T07:21:27.939Z,6.30
2023-11-13T07:24:00.918Z,6.70
2023-11-13T07:26:33.389Z,6.80
2023-11-13T07:29:06.746Z,6.70
2023-11-13T07:31:39.116Z,6.70
2023-11-13T07:34:13.076Z,6.50
2023-11-13T07:36:45.658Z,5.90
2023-11-13T07:39:19.530Z,6.30
2023-11-13T07:41:54.048Z,6.50
2023-11-13T07:44:28.200Z,6.40
2023-11-13T07:47:03.846Z,7.20
2023-11-13T07:49:36.898Z,6.80
2023-11-13T07:52:11.580Z,7.50
2023-11-13T07:54:44.674Z,7.00
2023-11-13T07:57:17.275Z,6.10
2023-11-13T07:59:50.153Z,5.70
2023-11-13T08:02:23.492Z,6.40
2023-11-13T08:07:27.420Z,7.00
2023-11-13T08:10:05.592Z,6.20
2023-11-13T08:12:38.706Z,6.40
2023-11-13T08:15:14.528Z,6.40
2023-11-13T08:17:48.111Z,7.20
2023-11-13T08:20:28.206Z,7.20
2023-11-13T08:23:01.931Z,6.50
2023-11-13T08:28:07.143Z,6.60
2023-11-13T08:30:43.208Z,6.60
2023-11-13T08:33:16.587Z,6.80
2023-11-13T08:38:20.275Z,6.70
2023-11-13T08:40:56.752Z,6.10
2023-11-13T08:43:29.366Z,6.90
2023-11-13T08:46:02.301Z,6.60
2023-11-13T08:48:35.011Z,4.70
2023-11-13T08:51:10.465Z,5.60
2023-11-13T08:53:44.709Z,5.80
2023-11-13T08:56:17.950Z,5.30
2023-11-13T08:58:51.659Z,5.40
2023-11-13T09:01:30.023Z,5.30
2023-11-13T09:04:03.018Z,4.90
2023-11-13T09:06:38.030Z,5.30
2023-11-13T09:09:13.868Z,5.80
2023-11-13T09:11:49.367Z,5.60
2023-11-13T09:14:23.991Z,5.60
2023-11-13T09:16:57.385Z,5.80
2023-11-13T09:19:30.707Z,5.80
2023-11-13T09:22:11.133Z,5.90
2023-11-13T09:24:47.676Z,6.00
2023-11-13T09:27:20.423Z,6.70
2023-11-13T09:29:55.646Z,6.30
2023-11-13T09:32:28.673Z,6.10
2023-11-13T09:35:08.126Z,6.70
2023-11-13T09:37:42.612Z,6.80
2023-11-13T09:40:17.645Z,6.40
2023-11-13T09:42:56.122Z,6.30
2023-11-13T09:45:29.330Z,6.70
2023-11-13T09:48:08.604Z,6.60
2023-11-13T09:50:50.372Z,6.00
2023-11-13T09:53:27.345Z,6.00
2023-11-13T09:56:03.688Z,5.00
2023-11-13T09:58:37.974Z,5.10
2023-11-13T10:01:14.820Z,4.90
2023-11-13T10:03:48.048Z,4.30
2023-11-13T10:06:21.310Z,4.20
2023-11-13T10:08:55.304Z,4.70
2023-11-13T10:11:31.218Z,4.30
2023-11-13T10:14:18.198Z,4.10
2023-11-13T10:16:59.620Z,5.90
2023-11-13T10:19:33.525Z,5.50
2023-11-13T10:22:06.184Z,4.50
2023-11-13T10:24:45.138Z,5.20
2023-11-13T10:27:20.617Z,4.10
2023-11-13T10:30:04.404Z,4.40
2023-11-13T10:35:12.391Z,4.30
2023-11-13T10:38:00.075Z,3.90
2023-11-13T10:40:35.622Z,4.10
2023-11-13T10:43:09.434Z,4.40
2023-11-13T10:45:49.731Z,4.20
2023-11-13T10:48:33.509Z,3.70
2023-11-13T10:51:07.460Z,3.80
2023-11-13T10:53:43.517Z,3.70
2023-11-13T10:56:17.168Z,3.90
2023-11-13T10:58:51.284Z,3.70
2023-11-13T11:01:27.489Z,4.40
2023-11-13T11:04:07.622Z,4.00
2023-11-13T11:06:43.001Z,3.40
2023-11-13T11:09:20.059Z,3.50
2023-11-13T11:11:57.306Z,3.50
2023-11-13T11:14:44.900Z,3.80
2023-11-13T11:17:27.902Z,3.80
2023-11-13T11:20:07.421Z,3.90
2023-11-13T11:22:48.114Z,4.00
2023-11-13T11:25:46.367Z,3.80
2023-11-13T11:28:46.678Z,4.40
2023-11-13T11:31:51.990Z,4.90
2023-11-13T11:34:32.082Z,5.00
2023-11-13T11:37:05.573Z,4.30
2023-11-13T11:39:49.628Z,4.70
2023-11-13T11:42:25.463Z,4.30
2023-11-13T11:45:08.845Z,3.70
2023-11-13T11:47:42.258Z,3.80
2023-11-13T11:52:53.916Z,3.90
2023-11-13T11:55:31.841Z,3.50
2023-11-13T11:58:04.689Z,3.70
2023-11-13T12:00:37.412Z,3.80
2023-11-13T12:03:10.502Z,3.90
2023-11-13T12:05:44.037Z,4.00
2023-11-13T12:08:16.909Z,4.20
2023-11-13T12:10:50.210Z,4.40
2023-11-13T12:13:25.891Z,4.50
2023-11-13T12:16:01.839Z,4.70
2023-11-13T12:18:34.669Z,4.60
2023-11-13T12:21:10.942Z,3.90
2023-11-13T12:23:46.407Z,4.10
2023-11-13T12:26:19.449Z,4.20
2023-11-13T12:29:00.653Z,4.10
2023-11-13T12:31:34.873Z,4.60
2023-11-13T12:34:07.518Z,3.80
2023-11-13T12:36:42.818Z,3.50
2023-11-13T12:39:20.713Z,3.60
2023-11-13T12:41:54.490Z,4.10
2023-11-13T12:44:31.941Z,3.50
2023-11-13T12:47:09.511Z,3.60
2023-11-13T12:49:42.930Z,3.50
2023-11-13T12:52:20.122Z,3.50
2023-11-13T12:54:57.131Z,3.90
2023-11-13T12:57:31.028Z,3.80
2023-11-13T13:00:14.393Z,4.10
2023-11-13T13:02:48.774Z,3.60
2023-11-13T13:05:30.094Z,3.50
2023-11-13T13:08:06.775Z,3.70
2023-11-13T13:10:39.304Z,3.10
2023-11-13T13:13:12.959Z,3.10
2023-11-13T13:15:46.742Z,3.60
2023-11-13T13:18:19.771Z,3.60
2023-11-13T13:20:52.471Z,3.30
2023-11-13T13:23:25.443Z,3.40
2023-11-13T13:25:58.051Z,3.70
2023-11-13T13:28:31.975Z,3.30
2023-11-13T13:31:06.726Z,3.40
2023-11-13T13:33:41.836Z,2.60
2023-11-13T13:36:15.592Z,2.80
2023-11-13T13:41:23.158Z,3.00
2023-11-13T13:43:57.330Z,3.10
2023-11-13T13:46:30.682Z,3.10
2023-11-13T13:49:03.941Z,3.50
2023-11-13T13:51:38.972Z,3.70
2023-11-13T13:54:13.044Z,7.80
2023-11-13T13:56:48.847Z,5.30
2023-11-13T13:59:23.916Z,4.20
2023-11-13T14:01:56.643Z,3.90
2023-11-13T14:04:30.804Z,2.70
2023-11-13T14:07:04.216Z,3.80
2023-11-13T14:12:18.647Z,3.40
2023-11-13T14:14:54.814Z,3.20
2023-11-13T14:17:27.599Z,4.00
2023-11-13T14:22:34.391Z,4.40
2023-11-13T14:25:11.330Z,3.80
2023-11-13T14:27:44.334Z,3.80
2023-11-13T14:30:18.212Z,4.10
2023-11-13T14:32:53.854Z,3.90
2023-11-13T14:35:37.067Z,4.00
2023-11-13T14:38:13.129Z,4.10
2023-11-13T14:40:46.493Z,4.20
2023-11-13T14:43:21.917Z,4.60
2023-11-13T14:45:56.159Z,5.10
2023-11-13T14:48:28.968Z,4.70
2023-11-13T14:51:02.393Z,4.00
2023-11-13T14:53:37.166Z,4.50
2023-11-13T14:56:12.352Z,4.90
2023-11-13T14:58:44.778Z,4.60
2023-11-13T15:01:18.073Z,5.50
2023-11-13T15:03:54.475Z,5.40
2023-11-13T15:06:29.917Z,4.90
2023-11-13T15:09:02.725Z,4.50
2023-11-13T15:11:36.387Z,3.90
2023-11-13T15:16:42.918Z,3.20
2023-11-13T15:19:17.386Z,4.20
2023-11-13T15:21:51.131Z,4.30
2023-11-13T15:24:25.277Z,4.50
2023-11-13T15:26:58.518Z,4.90
2023-11-13T15:29:31.012Z,5.80
2023-11-13T15:32:10.221Z,6.30
2023-11-13T15:34:44.835Z,6.10
2023-11-13T15:37:17.483Z,6.50
2023-11-13T15:40:01.110Z,5.60
2023-11-13T15:42:38.226Z,6.10
2023-11-13T15:45:13.631Z,5.80
2023-11-13T15:47:47.411Z,5.80
2023-11-13T15:50:22.285Z,7.20
2023-11-13T15:52:55.716Z,9.70
2023-11-13T15:55:28.332Z,7.90
2023-11-13T15:58:02.930Z,6.70
2023-11-13T16:00:36.861Z,6.40
2023-11-13T16:03:12.798Z,7.60
2023-11-13T16:05:46.062Z,6.40
2023-11-13T16:08:19.043Z,6.80
2023-11-13T16:10:51.619Z,5.70
2023-11-13T16:13:25.527Z,5.90
2023-11-13T16:18:30.306Z,5.80
2023-11-13T16:21:05.120Z,6.60
2023-11-13T16:23:38.378Z,6.60
2023-11-13T16:26:11.868Z,7.10
2023-11-13T16:31:15.622Z,6.70
2023-11-13T16:33:48.379Z,6.80
2023-11-13T16:36:21.760Z,5.40
2023-11-13T16:38:54.719Z,8.40
2023-11-13T16:41:28.461Z,8.10
2023-11-13T16:44:03.061Z,8.20
2023-11-13T16:46:36.164Z,10.70
2023-11-13T16:49:09.674Z,10.60
2023-11-13T16:54:14.969Z,10.60
2023-11-13T16:59:19.984Z,10.50
2023-11-13T17:01:53.097Z,10.50
2023-11-13T17:04:27.423Z,11.80
2023-11-13T17:07:00.000Z,12.10
2023-11-13T17:09:33.042Z,12.50
2023-11-13T17:12:06.229Z,11.80
2023-11-13T17:14:38.971Z,12.00
2023-11-13T17:17:19.818Z,10.90
2023-11-13T17:19:57.808Z,10.80
2023-11-13T17:22:31.346Z,11.20
2023-11-13T17:25:04.798Z,10.50
2023-11-13T17:27:37.871Z,11.10
2023-11-13T17:30:13.239Z,10.20
2023-11-13T17:32:47.567Z,9.20
2023-11-13T17:35:21.705Z,9.70
2023-11-13T17:37:54.957Z,8.00
2023-11-13T17:40:27.922Z,7.90
2023-11-13T17:43:03.951Z,7.80
2023-11-13T17:45:39.171Z,7.50
2023-11-13T17:48:14.714Z,9.20
2023-11-13T17:50:48.390Z,8.10
2023-11-13T17:53:22.290Z,8.50
2023-11-13T17:55:55.674Z,8.40
2023-11-13T17:58:29.577Z,8.30
2023-11-13T18:01:02.572Z,15.70
2023-11-13T18:03:35.366Z,29.90
2023-11-13T18:06:08.932Z,17.60
2023-11-13T18:08:42.247Z,14.30
2023-11-13T18:11:16.679Z,7.90
2023-11-13T18:13:49.895Z,8.40
2023-11-13T18:16:24.225Z,9.10
2023-11-13T18:18:57.104Z,8.40
2023-11-13T18:21:30.175Z,8.60
2023-11-13T18:24:04.870Z,9.60
2023-11-13T18:26:39.971Z,10.20
2023-11-13T18:29:13.236Z,9.60
2023-11-13T18:31:47.082Z,9.30
2023-11-13T18:34:26.052Z,8.30
2023-11-13T18:37:00.827Z,8.60
2023-11-13T18:39:36.883Z,9.30
2023-11-13T18:42:18.748Z,20.50
2023-11-13T18:45:10.170Z,13.80
2023-11-13T18:47:54.450Z,9.60
2023-11-13T18:53:05.534Z,11.00
2023-11-13T18:55:38.816Z,11.10
2023-11-13T18:58:12.884Z,9.50
2023-11-13T19:00:45.518Z,10.30
2023-11-13T19:03:19.290Z,10.20
2023-11-13T19:05:52.914Z,10.90
2023-11-13T19:08:25.869Z,12.00
2023-11-13T19:10:59.762Z,10.50
2023-11-13T19:13:33.179Z,10.20
2023-11-13T19:16:09.506Z,10.70
2023-11-13T19:18:42.612Z,11.50
2023-11-13T19:21:15.656Z,10.70
2023-11-13T19:23:49.111Z,12.30
2023-11-13T19:29:00.134Z,10.00
2023-11-13T19:31:44.659Z,10.90
2023-11-13T19:34:22.930Z,11.40
2023-11-13T19:37:01.293Z,12.10
2023-11-13T19:39:37.849Z,11.70
2023-11-13T19:42:13.291Z,12.80
2023-11-13T19:44:53.424Z,12.50
2023-11-13T19:47:30.338Z,14.60
2023-11-13T19:50:05.970Z,14.90
2023-11-13T19:52:48.078Z,13.90
2023-11-13T19:55:22.304Z,17.00
2023-11-13T19:57:56.270Z,17.10
2023-11-13T20:00:29.936Z,17.50
2023-11-13T20:05:34.848Z,16.40
2023-11-13T20:08:10.305Z,18.50
2023-11-13T20:10:43.854Z,19.80
2023-11-13T20:13:19.222Z,21.40
2023-11-13T20:16:00.904Z,20.50
2023-11-13T20:18:37.175Z,22.00
2023-11-13T20:21:13.000Z,20.00
2023-11-13T20:23:45.820Z,19.20
2023-11-13T20:26:18.701Z,18.80
2023-11-13T20:28:58.520Z,20.70
2023-11-13T20:31:32.102Z,17.50
2023-11-13T20:34:05.184Z,20.40
2023-11-13T20:36:41.192Z,19.30
2023-11-13T20:39:14.623Z,19.00
2023-11-13T20:41:47.174Z,21.90
2023-11-13T20:44:20.033Z,18.80
2023-11-13T20:46:54.609Z,20.40
2023-11-13T20:49:27.900Z,22.20
2023-11-13T20:52:00.969Z,18.60
2023-11-13T20:54:34.002Z,18.30
2023-11-13T20:57:07.507Z,19.30
2023-11-13T20:59:40.872Z,19.40
2023-11-13T21:04:45.707Z,19.50
2023-11-13T21:07:18.747Z,21.20
2023-11-13T21:09:51.611Z,22.40
2023-11-13T21:12:25.813Z,24.20
2023-11-13T21:14:59.344Z,22.80
2023-11-13T21:17:34.169Z,25.20
2023-11-13T21:20:14.105Z,25.30
2023-11-13T21:22:47.320Z,27.20
2023-11-13T21:25:22.314Z,25.70
2023-11-13T21:27:56.410Z,29.50
2023-11-13T21:30:29.951Z,28.00
2023-11-13T21:33:03.074Z,27.00
2023-11-13T21:35:36.060Z,24.30
2023-11-13T21:38:09.760Z,26.00
2023-11-13T21:43:14.647Z,26.60
2023-11-13T21:45:48.728Z,25.60
2023-11-13T21:48:21.678Z,26.70
2023-11-13T21:50:54.711Z,26.40
2023-11-13T21:53:28.269Z,26.10
2023-11-13T21:56:01.577Z,25.50
2023-11-13T21:58:34.916Z,26.70
2023-11-13T22:01:12.900Z,27.10
2023-11-13T22:03:45.712Z,26.10
2023-11-13T22:06:20.355Z,26.40
2023-11-13T22:08:53.462Z,25.90
2023-11-13T22:11:27.092Z,26.50
2023-11-13T22:16:30.995Z,25.60
2023-11-13T22:19:06.829Z,25.40
2023-11-13T22:21:39.480Z,26.40
2023-11-13T22:24:12.992Z,25.10
2023-11-13T22:26:45.693Z,24.60
2023-11-13T22:29:18.651Z,20.60
2023-11-13T22:31:51.415Z,25.80
2023-11-13T22:34:24.637Z,25.20
2023-11-13T22:36:57.531Z,23.30
2023-11-13T22:39:31.156Z,25.50
2023-11-13T22:42:04.906Z,25.10
2023-11-13T22:44:38.408Z,24.30
2023-11-13T22:47:12.421Z,24.60
2023-11-13T22:49:47.554Z,24.10
2023-11-13T22:52:22.882Z,24.00
2023-11-13T22:54:57.361Z,24.50
2023-11-13T22:57:31.661Z,23.50
2023-11-13T23:00:08.952Z,25.60
2023-11-13T23:02:42.076Z,23.30
2023-11-13T23:05:15.642Z,24.30
2023-11-13T23:07:48.740Z,24.80
2023-11-13T23:10:22.400Z,20.90
2023-11-13T23:12:55.281Z,22.70
2023-11-13T23:15:33.668Z,24.00
2023-11-13T23:18:06.950Z,20.50
2023-11-13T23:20:39.685Z,23.60
2023-11-13T23:23:13.201Z,22.50
2023-11-13T23:28:16.919Z,20.30
2023-11-13T23:30:49.927Z,20.30
2023-11-13T23:33:23.018Z,22.70
2023-11-13T23:35:56.859Z,20.70
2023-11-13T23:38:30.313Z,21.90
2023-11-13T23:41:06.288Z,21.50
2023-11-13T23:43:40.041Z,20.20
2023-11-13T23:46:14.522Z,21.10
2023-11-13T23:48:47.365Z,19.70
2023-11-13T23:51:20.037Z,20.30
2023-11-13T23:53:54.473Z,20.40
2023-11-13T23:56:28.913Z,18.70
2023-11-13T23:59:02.007Z,19.00
